createdAt,value
2023-01-02T00:01:58.926Z,98483.00
2023-01-02T00:04:25.529Z,98484.53
2023-01-02T00:06:52.060Z,98468.84
2023-01-02T00:09:18.936Z,98474.31
2023-01-02T00:11:45.556Z,98473.16
2023-01-02T00:14:12.364Z,98473.16
2023-01-02T00:16:39.050Z,98457.16
2023-01-02T00:19:05.791Z,98459.91
2023-01-02T00:21:32.375Z,98458.34
2023-01-02T00:23:58.981Z,98456.44
2023-01-02T00:26:25.519Z,98450.53
2023-01-02T00:28:52.113Z,98444.66
2023-01-02T00:31:18.893Z,98449.38
2023-01-02T00:33:45.490Z,98439.97
2023-01-02T00:36:13.402Z,98445.03
2023-01-02T00:38:40.761Z,98447.81
2023-01-02T00:41:07.816Z,98445.50
2023-01-02T00:43:34.680Z,98436.84
2023-01-02T00:46:06.191Z,98431.75
2023-01-02T00:48:36.968Z,98421.97
2023-01-02T00:51:03.755Z,98429.38
2023-01-02T00:53:30.503Z,98427.38
2023-01-02T00:55:57.211Z,98428.19
2023-01-02T00:58:23.853Z,98433.69
2023-01-02T01:00:51.081Z,98438.78
2023-01-02T01:03:17.956Z,98438.38
2023-01-02T01:05:44.592Z,98441.09
2023-01-02T01:08:11.223Z,98446.19
2023-01-02T01:10:38.381Z,98452.44
2023-01-02T01:13:05.322Z,98455.50
2023-01-02T01:15:33.576Z,98462.44
2023-01-02T01:18:00.270Z,98458.31
2023-01-02T01:20:26.927Z,98453.66
2023-01-02T01:22:53.562Z,98455.16
2023-01-02T01:25:21.384Z,98446.44
2023-01-02T01:27:47.993Z,98446.41
2023-01-02T01:30:14.672Z,98453.09
2023-01-02T01:32:41.242Z,98455.91
2023-01-02T01:35:08.068Z,98456.91
2023-01-02T01:37:34.719Z,98458.81
2023-01-02T01:40:01.587Z,98461.06
2023-01-02T01:42:34.960Z,98467.66
2023-01-02T01:45:02.369Z,98477.38
2023-01-02T01:47:42.727Z,98470.31
2023-01-02T01:50:17.946Z,98480.75
2023-01-02T01:52:57.328Z,98472.66
2023-01-02T01:55:33.537Z,98482.00
2023-01-02T01:58:05.361Z,98474.53
2023-01-02T02:00:32.499Z,98472.22
2023-01-02T02:03:07.516Z,98463.34
2023-01-02T02:05:34.949Z,98459.53
2023-01-02T02:08:13.447Z,98473.66
2023-01-02T02:10:41.251Z,98474.06
2023-01-02T02:13:07.918Z,98458.31
2023-01-02T02:16:12.603Z,98457.69
2023-01-02T02:18:51.638Z,98460.63
2023-01-02T02:21:40.482Z,98461.53
2023-01-02T02:24:44.988Z,98458.75
2023-01-02T02:27:50.689Z,98457.91
2023-01-02T02:30:22.970Z,98449.69
2023-01-02T02:33:03.683Z,98447.34
2023-01-02T02:35:49.504Z,98445.88
2023-01-02T02:38:30.847Z,98436.78
2023-01-02T02:41:16.172Z,98427.00
2023-01-02T02:43:51.783Z,98427.56
2023-01-02T02:46:27.325Z,98424.34
2023-01-02T02:49:06.958Z,98431.13
2023-01-02T02:51:59.468Z,98415.63
2023-01-02T02:54:37.986Z,98413.97
2023-01-02T02:57:07.393Z,98420.84
2023-01-02T02:59:36.663Z,98415.06
2023-01-02T03:02:05.198Z,98421.28
2023-01-02T03:04:32.121Z,98417.91
2023-01-02T03:07:10.883Z,98414.75
2023-01-02T03:09:49.717Z,98418.78
2023-01-02T03:12:29.791Z,98422.75
2023-01-02T03:15:25.056Z,98406.47
2023-01-02T03:18:14.698Z,98406.09
2023-01-02T03:20:47.796Z,98406.22
2023-01-02T03:26:01.840Z,98407.59
2023-01-02T03:28:29.656Z,98414.38
2023-01-02T03:31:01.236Z,98411.00
2023-01-02T03:33:31.620Z,98407.97
2023-01-02T03:36:03.952Z,98419.78
2023-01-02T03:41:40.618Z,98409.81
2023-01-02T03:44:10.861Z,98412.97
2023-01-02T03:46:47.704Z,98418.47
2023-01-02T03:49:30.290Z,98411.09
2023-01-02T03:51:56.907Z,98409.94
2023-01-02T03:54:23.830Z,98407.19
2023-01-02T03:57:13.598Z,98413.00
2023-01-02T03:59:50.118Z,98412.31
2023-01-02T04:02:28.665Z,98415.81
2023-01-02T04:04:58.585Z,98419.78
2023-01-02T04:07:30.626Z,98406.41
2023-01-02T04:09:59.343Z,98417.09
2023-01-02T04:12:28.849Z,98416.34
2023-01-02T04:15:02.069Z,98414.44
2023-01-02T04:17:31.844Z,98413.28
2023-01-02T04:20:05.171Z,98417.97
2023-01-02T04:22:38.668Z,98410.97
2023-01-02T04:25:17.267Z,98403.59
2023-01-02T04:28:04.938Z,98403.25
2023-01-02T04:30:39.727Z,98405.16
2023-01-02T04:33:10.461Z,98401.97
2023-01-02T04:35:37.214Z,98398.44
2023-01-02T04:38:11.260Z,98397.00
2023-01-02T04:40:38.594Z,98385.19
2023-01-02T04:43:12.803Z,98389.81
2023-01-02T04:45:39.470Z,98387.44
2023-01-02T04:48:06.300Z,98382.72
2023-01-02T04:50:32.864Z,98385.53
2023-01-02T04:52:59.465Z,98384.78
2023-01-02T04:58:06.275Z,98386.41
2023-01-02T05:00:33.364Z,98384.78
2023-01-02T05:03:02.700Z,98392.28
2023-01-02T05:08:15.615Z,98387.44
2023-01-02T05:10:42.915Z,98391.59
2023-01-02T05:13:09.532Z,98393.06
2023-01-02T05:18:09.337Z,98400.16
2023-01-02T05:20:35.970Z,98398.53
2023-01-02T05:23:21.403Z,98388.22
2023-01-02T05:25:47.947Z,98393.03
2023-01-02T05:28:14.595Z,98391.53
2023-01-02T05:33:14.417Z,98399.28
2023-01-02T05:35:41.129Z,98390.56
2023-01-02T05:38:07.744Z,98403.78
2023-01-02T05:40:34.406Z,98397.94
2023-01-02T05:43:01.013Z,98389.38
2023-01-02T05:45:28.488Z,98393.78
2023-01-02T05:47:56.358Z,98398.38
2023-01-02T05:50:22.942Z,98400.78
2023-01-02T05:52:49.513Z,98389.88
2023-01-02T05:55:16.258Z,98383.63
2023-01-02T05:57:42.834Z,98390.66
2023-01-02T06:00:10.153Z,98393.84
2023-01-02T06:02:36.785Z,98392.75
2023-01-02T06:05:03.631Z,98405.22
2023-01-02T06:07:30.232Z,98403.78
2023-01-02T06:09:56.829Z,98401.84
2023-01-02T06:12:23.479Z,98407.66
2023-01-02T06:14:50.062Z,98415.41
2023-01-02T06:17:16.773Z,98417.69
2023-01-02T06:19:47.257Z,98432.28
2023-01-02T06:22:16.884Z,98428.34
2023-01-02T06:24:43.422Z,98419.03
2023-01-02T06:27:10.031Z,98425.81
2023-01-02T06:29:36.618Z,98423.00
2023-01-02T06:32:03.211Z,98427.00
2023-01-02T06:34:29.921Z,98428.56
2023-01-02T06:36:56.571Z,98422.31
2023-01-02T06:39:23.271Z,98430.94
2023-01-02T06:41:49.822Z,98433.44
2023-01-02T06:44:16.486Z,98435.31
2023-01-02T06:46:43.011Z,98429.06
2023-01-02T06:49:09.593Z,98437.66
2023-01-02T06:51:36.228Z,98444.28
2023-01-02T06:54:02.809Z,98436.88
2023-01-02T06:56:29.403Z,98442.75
2023-01-02T06:58:56.133Z,98446.19
2023-01-02T07:01:23.402Z,98446.69
2023-01-02T07:03:50.778Z,98443.28
2023-01-02T07:06:22.651Z,98452.22
2023-01-02T07:08:49.569Z,98456.94
2023-01-02T07:11:17.865Z,98465.13
2023-01-02T07:13:45.765Z,98467.06
2023-01-02T07:16:15.159Z,98460.72
2023-01-02T07:18:41.903Z,98461.16
2023-01-02T07:21:09.889Z,98462.22
2023-01-02T07:23:37.047Z,98469.34
2023-01-02T07:26:05.911Z,98468.50
2023-01-02T07:28:33.188Z,98486.00
2023-01-02T07:31:01.949Z,98490.34
2023-01-02T07:33:29.733Z,98494.34
2023-01-02T07:36:11.401Z,98495.09
2023-01-02T07:38:39.354Z,98503.97
2023-01-02T07:41:14.294Z,98511.31
2023-01-02T07:43:41.612Z,98503.25
2023-01-02T07:46:08.183Z,98498.59
2023-01-02T07:48:34.738Z,98508.53
2023-01-02T07:51:02.834Z,98508.09
2023-01-02T07:53:29.708Z,98498.72
2023-01-02T07:55:57.521Z,98504.13
2023-01-02T07:58:24.512Z,98508.78
2023-01-02T08:00:51.163Z,98516.78
2023-01-02T08:03:17.996Z,98515.63
2023-01-02T08:05:44.636Z,98522.63
2023-01-02T08:08:11.377Z,98515.25
2023-01-02T08:10:38.440Z,98526.56
2023-01-02T08:13:05.792Z,98523.69
2023-01-02T08:15:32.662Z,98518.94
2023-01-02T08:17:59.470Z,98508.44
2023-01-02T08:20:27.750Z,98520.31
2023-01-02T08:22:56.747Z,98521.91
2023-01-02T08:25:23.334Z,98527.91
2023-01-02T08:27:49.910Z,98530.75
2023-01-02T08:30:16.789Z,98532.72
2023-01-02T08:32:43.373Z,98530.81
2023-01-02T08:35:09.998Z,98539.44
2023-01-02T08:37:36.616Z,98547.97
2023-01-02T08:40:03.493Z,98547.28
2023-01-02T08:42:30.098Z,98545.09
2023-01-02T08:44:56.786Z,98552.16
2023-01-02T08:47:23.350Z,98550.63
2023-01-02T08:49:49.938Z,98553.41
2023-01-02T08:52:16.535Z,98549.91
2023-01-02T08:54:43.092Z,98557.81
2023-01-02T08:57:09.629Z,98555.63
2023-01-02T09:02:15.321Z,98542.16
2023-01-02T09:04:42.133Z,98547.69
2023-01-02T09:07:08.797Z,98543.81
2023-01-02T09:09:35.446Z,98541.13
2023-01-02T09:12:02.013Z,98558.03
2023-01-02T09:14:28.590Z,98555.69
2023-01-02T09:16:55.265Z,98554.97
2023-01-02T09:19:22.083Z,98560.09
2023-01-02T09:21:48.674Z,98570.25
2023-01-02T09:24:15.312Z,98568.28
2023-01-02T09:26:42.652Z,98570.31
2023-01-02T09:29:10.507Z,98572.66
2023-01-02T09:31:37.800Z,98576.97
2023-01-02T09:34:04.530Z,98577.44
2023-01-02T09:36:31.572Z,98580.28
2023-01-02T09:39:01.062Z,98578.88
2023-01-02T09:47:08.375Z,98587.75
2023-01-02T09:49:43.875Z,98592.84
2023-01-02T09:52:22.216Z,98588.13
2023-01-02T09:54:48.881Z,98594.72
2023-01-02T09:57:27.252Z,98592.78
2023-01-02T10:00:01.993Z,98593.19
2023-01-02T10:02:31.237Z,98602.19
2023-01-02T10:05:49.953Z,98606.22
2023-01-02T10:08:32.490Z,98603.88
2023-01-02T10:11:23.787Z,98619.28
2023-01-02T10:14:18.762Z,98612.66
2023-01-02T10:16:50.077Z,98611.13
2023-01-02T10:19:26.983Z,98620.19
2023-01-02T10:21:58.731Z,98623.34
2023-01-02T10:24:44.777Z,98619.03
2023-01-02T10:27:38.419Z,98613.56
2023-01-02T10:30:17.045Z,98622.28
2023-01-02T10:32:49.414Z,98619.19
2023-01-02T10:35:39.335Z,98623.13
2023-01-02T10:38:06.603Z,98619.22
2023-01-02T10:40:33.855Z,98612.53
2023-01-02T10:43:01.246Z,98620.38
2023-01-02T10:45:28.965Z,98619.25
2023-01-02T10:47:55.572Z,98623.97
2023-01-02T10:50:26.048Z,98626.34
2023-01-02T10:53:07.944Z,98620.06
2023-01-02T10:55:34.565Z,98627.53
2023-01-02T10:58:25.783Z,98623.59
2023-01-02T11:01:22.362Z,98625.56
2023-01-02T11:04:12.565Z,98616.16
2023-01-02T11:06:51.025Z,98625.19
2023-01-02T11:09:25.765Z,98622.44
2023-01-02T11:11:55.277Z,98623.63
2023-01-02T11:14:24.277Z,98620.88
2023-01-02T11:16:51.661Z,98624.81
2023-01-02T11:19:27.475Z,98619.69
2023-01-02T11:21:56.390Z,98613.03
2023-01-02T11:24:27.256Z,98622.47
2023-01-02T11:26:54.852Z,98608.72
2023-01-02T11:29:28.517Z,98609.91
2023-01-02T11:31:59.453Z,98619.72
2023-01-02T11:34:38.870Z,98630.38
2023-01-02T11:37:14.034Z,98621.28
2023-01-02T11:39:41.587Z,98612.25
2023-01-02T11:42:27.137Z,98616.53
2023-01-02T11:45:05.694Z,98630.34
2023-01-02T11:50:44.090Z,98621.66
2023-01-02T11:53:13.422Z,98624.81
2023-01-02T11:55:49.725Z,98632.28
2023-01-02T11:58:42.890Z,98624.81
2023-01-02T12:01:22.327Z,98629.56
2023-01-02T12:06:40.550Z,98621.28
2023-01-02T12:09:13.417Z,98624.41
2023-01-02T12:11:49.883Z,98633.06
2023-01-02T12:14:27.589Z,98625.44
2023-01-02T12:17:21.385Z,98628.63
2023-01-02T12:20:06.282Z,98629.88
2023-01-02T12:23:05.057Z,98631.47
2023-01-02T12:25:51.682Z,98632.25
2023-01-02T12:28:55.897Z,98635.03
2023-01-02T12:32:02.747Z,98634.63
2023-01-02T12:34:42.267Z,98630.31
2023-01-02T12:40:11.521Z,98609.50
2023-01-02T12:42:55.905Z,98607.53
2023-01-02T12:45:47.845Z,98614.22
2023-01-02T12:48:31.766Z,98624.06
2023-01-02T12:51:13.211Z,98626.06
2023-01-02T12:54:20.634Z,98623.69
2023-01-02T12:57:04.973Z,98632.31
2023-01-02T12:59:40.180Z,98635.84
2023-01-02T13:02:15.729Z,98639.00
2023-01-02T13:05:08.539Z,98641.38
2023-01-02T13:07:47.025Z,98639.00
2023-01-02T13:10:20.515Z,98631.94
2023-01-02T13:12:48.070Z,98629.56
2023-01-02T13:15:25.730Z,98639.78
2023-01-02T13:18:14.367Z,98636.66
2023-01-02T13:20:49.644Z,98642.16
2023-01-02T13:26:16.742Z,98645.31
2023-01-02T13:28:53.027Z,98642.97
2023-01-02T13:31:45.551Z,98643.34
2023-01-02T13:34:15.446Z,98646.09
2023-01-02T13:36:50.587Z,98650.41
2023-01-02T13:39:23.729Z,98650.03
2023-01-02T13:44:56.143Z,98661.81
2023-01-02T13:47:34.437Z,98655.50
2023-01-02T13:50:20.073Z,98654.31
2023-01-02T13:53:11.912Z,98663.75
2023-01-02T13:55:41.171Z,98668.47
2023-01-02T13:58:17.828Z,98675.56
2023-01-02T14:00:53.398Z,98677.13
2023-01-02T14:03:23.783Z,98674.38
2023-01-02T14:05:59.419Z,98677.50
2023-01-02T14:08:33.780Z,98675.94
2023-01-02T14:11:09.480Z,98682.25
2023-01-02T14:13:42.764Z,98688.91
2023-01-02T14:16:47.049Z,98693.22
2023-01-02T14:19:13.727Z,98693.25
2023-01-02T14:21:51.473Z,98688.53
2023-01-02T14:24:30.526Z,98692.44
2023-01-02T14:27:00.844Z,98701.88
2023-01-02T14:29:28.774Z,98704.22
2023-01-02T14:32:02.560Z,98708.56
2023-01-02T14:34:29.460Z,98723.06
2023-01-02T14:36:58.984Z,98720.72
2023-01-02T14:39:33.993Z,98737.59
2023-01-02T14:42:31.023Z,98734.44
2023-01-02T14:45:03.303Z,98741.09
2023-01-02T14:47:42.573Z,98745.03
2023-01-02T14:50:17.013Z,98752.47
2023-01-02T14:52:50.027Z,98749.31
2023-01-02T14:55:27.332Z,98749.72
2023-01-02T14:57:55.802Z,98756.38
2023-01-02T15:00:29.670Z,98762.25
2023-01-02T15:03:07.813Z,98755.53
2023-01-02T15:05:45.782Z,98759.44
2023-01-02T15:08:15.041Z,98772.75
2023-01-02T15:11:22.308Z,98766.78
2023-01-02T15:16:27.668Z,98777.72
2023-01-02T15:19:00.043Z,98784.75
2023-01-02T15:21:29.770Z,98779.94
2023-01-02T15:23:58.093Z,98804.28
2023-01-02T15:26:32.606Z,98794.03
2023-01-02T15:29:02.506Z,98812.06
2023-01-02T15:31:29.788Z,98809.31
2023-01-02T15:34:00.148Z,98815.22
2023-01-02T15:36:40.455Z,98821.88
2023-01-02T15:39:19.715Z,98833.22
2023-01-02T15:41:53.059Z,98842.69
2023-01-02T15:44:50.877Z,98836.00
2023-01-02T15:47:25.465Z,98833.25
2023-01-02T15:49:56.526Z,98841.13
2023-01-02T15:52:25.734Z,98831.28
2023-01-02T15:54:53.458Z,98848.97
2023-01-02T15:57:25.090Z,98843.91
2023-01-02T15:59:52.016Z,98852.94
2023-01-02T16:02:44.616Z,98859.63
2023-01-02T16:05:19.184Z,98865.88
2023-01-02T16:07:50.949Z,98865.84
2023-01-02T16:10:21.381Z,98874.06
2023-01-02T16:12:56.704Z,98873.66
2023-01-02T16:15:28.899Z,98879.50
2023-01-02T16:20:30.594Z,98879.41
2023-01-02T16:23:07.958Z,98890.41
2023-01-02T16:25:37.170Z,98876.66
2023-01-02T16:28:34.231Z,98884.88
2023-01-02T16:31:21.933Z,98884.84
2023-01-02T16:33:48.729Z,98906.84
2023-01-02T16:36:15.312Z,98898.59
2023-01-02T16:38:51.852Z,98900.47
2023-01-02T16:41:42.531Z,98908.72
2023-01-02T16:44:12.610Z,98911.38
2023-01-02T16:46:40.758Z,98918.38
2023-01-02T16:49:08.058Z,98928.19
2023-01-02T16:51:34.796Z,98932.13
2023-01-02T16:54:01.458Z,98932.44
2023-01-02T16:56:28.069Z,98938.38
2023-01-02T16:58:54.620Z,98934.03
2023-01-02T17:03:56.287Z,98933.19
2023-01-02T17:06:24.422Z,98953.59
2023-01-02T17:08:51.541Z,98957.44
2023-01-02T17:11:23.235Z,98954.75
2023-01-02T17:13:51.219Z,98946.94
2023-01-02T17:16:18.894Z,98950.44
2023-01-02T17:18:45.879Z,98953.91
2023-01-02T17:21:12.483Z,98949.53
2023-01-02T17:23:39.097Z,98940.88
2023-01-02T17:26:06.162Z,98952.59
2023-01-02T17:28:32.768Z,98961.94
2023-01-02T17:30:59.359Z,98967.41
2023-01-02T17:33:25.994Z,98979.91
2023-01-02T17:35:52.748Z,98988.53
2023-01-02T17:38:19.490Z,98992.41
2023-01-02T17:40:46.159Z,98993.59
2023-01-02T17:43:12.840Z,98984.59
2023-01-02T17:45:41.632Z,98994.72
2023-01-02T17:50:41.523Z,99001.81
2023-01-02T17:53:08.548Z,99007.00
2023-01-02T17:55:35.349Z,99013.59
2023-01-02T17:58:02.484Z,99012.69
2023-01-02T18:00:29.190Z,99010.31
2023-01-02T18:02:55.854Z,99011.03
2023-01-02T18:05:23.017Z,99020.78
2023-01-02T18:07:50.070Z,99029.72
2023-01-02T18:10:20.325Z,99029.28
2023-01-02T18:12:47.731Z,99017.03
2023-01-02T18:15:15.860Z,99024.53
2023-01-02T18:17:43.066Z,99025.41
2023-01-02T18:20:12.401Z,99043.75
2023-01-02T18:22:44.061Z,99045.84
2023-01-02T18:25:21.080Z,99052.44
2023-01-02T18:27:48.540Z,99054.22
2023-01-02T18:30:23.924Z,99052.06
2023-01-02T18:32:57.499Z,99063.69
2023-01-02T18:35:56.787Z,99061.25
2023-01-02T18:38:35.189Z,99059.13
2023-01-02T18:41:16.660Z,99069.88
2023-01-02T18:43:45.699Z,99081.44
2023-01-02T18:46:17.044Z,99096.03
2023-01-02T18:48:43.661Z,99084.03
2023-01-02T18:51:22.363Z,99096.78
2023-01-02T18:53:51.602Z,99103.59
2023-01-02T18:56:28.288Z,99102.47
2023-01-02T18:59:16.087Z,99118.81
2023-01-02T19:01:50.477Z,99109.72
2023-01-02T19:04:27.906Z,99110.34
2023-01-02T19:06:57.658Z,99126.09
2023-01-02T19:09:36.190Z,99124.34
2023-01-02T19:12:45.478Z,99136.19
2023-01-02T19:18:18.889Z,99151.03
2023-01-02T19:20:52.847Z,99147.31
2023-01-02T19:23:25.022Z,99148.47
2023-01-02T19:31:40.912Z,99163.72
2023-01-02T19:37:12.771Z,99180.78
2023-01-02T19:42:28.415Z,99185.53
2023-01-02T19:47:47.621Z,99199.00
2023-01-02T19:50:16.955Z,99202.25
2023-01-02T19:52:43.557Z,99211.94
2023-01-02T19:55:11.267Z,99213.81
2023-01-02T19:57:38.249Z,99224.66
2023-01-02T20:00:07.671Z,99228.03
2023-01-02T20:02:35.222Z,99224.25
2023-01-02T20:05:01.961Z,99226.59
2023-01-02T20:07:28.539Z,99233.56
2023-01-02T20:09:55.099Z,99235.25
2023-01-02T20:12:30.499Z,99227.56
2023-01-02T20:14:58.492Z,99228.09
2023-01-02T20:17:25.207Z,99217.88
2023-01-02T20:19:51.847Z,99222.88
2023-01-02T20:22:18.421Z,99222.72
2023-01-02T20:24:45.817Z,99240.59
2023-01-02T20:27:14.164Z,99235.47
2023-01-02T20:32:12.144Z,99251.19
2023-01-02T20:34:39.200Z,99254.63
2023-01-02T20:37:06.006Z,99260.16
2023-01-02T20:39:32.770Z,99251.03
2023-01-02T20:41:59.400Z,99255.56
2023-01-02T20:44:25.982Z,99257.34
2023-01-02T20:46:52.660Z,99259.53
2023-01-02T20:49:19.799Z,99262.22
2023-01-02T20:51:46.887Z,99265.31
2023-01-02T20:56:47.721Z,99264.69
2023-01-02T21:01:49.188Z,99275.69
2023-01-02T21:04:20.642Z,99275.31
2023-01-02T21:06:51.408Z,99276.47
2023-01-02T21:09:17.964Z,99276.81
2023-01-02T21:11:44.558Z,99286.94
2023-01-02T21:14:11.301Z,99290.47
2023-01-02T21:16:45.585Z,99291.41
2023-01-02T21:19:12.270Z,99308.03
2023-01-02T21:21:38.908Z,99303.91
2023-01-02T21:24:06.039Z,99307.31
2023-01-02T21:29:06.912Z,99317.59
2023-01-02T21:31:33.565Z,99314.78
2023-01-02T21:34:00.773Z,99323.97
2023-01-02T21:44:39.291Z,99330.91
2023-01-02T21:47:06.100Z,99325.75
2023-01-02T21:49:35.828Z,99337.16
2023-01-02T21:52:02.422Z,99333.44
2023-01-02T21:57:12.388Z,99346.00
2023-01-02T21:59:38.963Z,99344.22
2023-01-02T22:02:06.901Z,99332.75
2023-01-02T22:04:37.443Z,99336.59
2023-01-02T22:07:30.722Z,99340.47
2023-01-02T22:09:51.112Z,99341.28
2023-01-02T22:12:17.698Z,99336.50
2023-01-02T22:14:44.622Z,99339.78
2023-01-02T22:17:11.597Z,99349.22
2023-01-02T22:19:39.737Z,99360.38
2023-01-02T22:22:06.444Z,99362.56
2023-01-02T22:24:36.635Z,99368.59
2023-01-02T22:27:07.645Z,99371.31
2023-01-02T22:30:09.726Z,99370.06
2023-01-02T22:32:23.306Z,99380.06
2023-01-02T22:34:51.497Z,99378.13
2023-01-02T22:37:22.349Z,99386.78
2023-01-02T22:39:49.348Z,99386.56
2023-01-02T22:45:41.554Z,99380.75
2023-01-02T22:48:16.528Z,99379.88
2023-01-02T22:50:45.055Z,99375.88
2023-01-02T22:53:29.273Z,99383.97
2023-01-02T22:56:10.967Z,99394.91
2023-01-02T22:58:43.668Z,99391.59
2023-01-02T23:01:36.504Z,99402.41
2023-01-02T23:04:24.225Z,99411.13
2023-01-02T23:09:49.977Z,99384.28
2023-01-02T23:12:22.669Z,99382.69
2023-01-02T23:14:55.363Z,99380.88
2023-01-02T23:17:46.579Z,99384.06
2023-01-02T23:20:19.335Z,99384.53
2023-01-02T23:22:51.993Z,99395.44
2023-01-02T23:25:24.680Z,99400.91
2023-01-02T23:27:57.338Z,99403.63
2023-01-02T23:30:30.204Z,99408.41
2023-01-02T23:35:34.138Z,99397.31
2023-01-02T23:38:00.665Z,99395.84
2023-01-02T23:40:30.699Z,99388.13
2023-01-02T23:43:00.567Z,99392.94
2023-01-02T23:45:27.174Z,99403.25
2023-01-02T23:47:53.758Z,99402.00
2023-01-02T23:50:20.381Z,99411.31
2023-01-02T23:52:46.982Z,99404.72
2023-01-02T23:55:13.571Z,99400.38
2023-01-02T23:57:40.317Z,99408.66
